sensor_id;sensor_type;location;lat;lon;timestamp;pressure;altitude;pressure_sealevel;temperature;humidity
64064;BME280;50314;50.618;10.642;2023-06-04T00:02:11;96988.63;;;21.64;21.46
64064;BME280;50314;50.618;10.642;2023-06-04T00:04:37;96982.44;;;21.63;21.46
64064;BME280;50314;50.618;10.642;2023-06-04T00:07:03;96981.59;;;21.63;21.42
64064;BME280;50314;50.618;10.642;2023-06-04T00:09:28;96987.31;;;21.59;21.54
64064;BME280;50314;50.618;10.642;2023-06-04T00:11:54;96983.59;;;21.61;21.43
64064;BME280;50314;50.618;10.642;2023-06-04T00:14:20;96978.59;;;21.57;21.36
64064;BME280;50314;50.618;10.642;2023-06-04T00:16:46;96975.28;;;21.55;21.62
64064;BME280;50314;50.618;10.642;2023-06-04T00:19:11;96976.31;;;21.54;21.53
64064;BME280;50314;50.618;10.642;2023-06-04T00:21:37;96963.91;;;21.53;21.43
64064;BME280;50314;50.618;10.642;2023-06-04T00:24:02;96963.25;;;21.51;21.54
64064;BME280;50314;50.618;10.642;2023-06-04T00:26:28;96972.28;;;21.50;21.54
64064;BME280;50314;50.618;10.642;2023-06-04T00:28:54;96972.47;;;21.49;21.54
64064;BME280;50314;50.618;10.642;2023-06-04T00:31:20;96968.13;;;21.48;21.40
64064;BME280;50314;50.618;10.642;2023-06-04T00:33:47;96972.81;;;21.46;21.49
64064;BME280;50314;50.618;10.642;2023-06-04T00:36:12;96965.81;;;21.45;21.72
64064;BME280;50314;50.618;10.642;2023-06-04T00:38:38;96965.97;;;21.43;21.30
64064;BME280;50314;50.618;10.642;2023-06-04T00:41:03;96965.31;;;21.41;21.59
64064;BME280;50314;50.618;10.642;2023-06-04T00:43:29;96968.00;;;21.41;21.64
64064;BME280;50314;50.618;10.642;2023-06-04T00:45:56;96964.66;;;21.39;21.53
64064;BME280;50314;50.618;10.642;2023-06-04T00:48:23;96964.84;;;21.38;21.72
64064;BME280;50314;50.618;10.642;2023-06-04T00:50:49;96969.53;;;21.35;21.47
64064;BME280;50314;50.618;10.642;2023-06-04T00:53:15;96965.34;;;21.33;21.72
64064;BME280;50314;50.618;10.642;2023-06-04T00:55:41;96974.41;;;21.32;21.62
64064;BME280;50314;50.618;10.642;2023-06-04T00:58:08;96973.56;;;21.31;21.61
64064;BME280;50314;50.618;10.642;2023-06-04T01:00:35;96970.22;;;21.29;21.56
64064;BME280;50314;50.618;10.642;2023-06-04T01:03:04;96969.38;;;21.29;21.78
64064;BME280;50314;50.618;10.642;2023-06-04T01:05:48;96965.75;;;21.22;21.62
64064;BME280;50314;50.618;10.642;2023-06-04T01:08:18;96971.59;;;21.25;21.60
64064;BME280;50314;50.618;10.642;2023-06-04T01:10:53;96971.56;;;21.17;21.77
64064;BME280;50314;50.618;10.642;2023-06-04T01:13:19;96975.78;;;21.20;21.81
64064;BME280;50314;50.618;10.642;2023-06-04T01:15:45;96973.09;;;21.20;21.63
64064;BME280;50314;50.618;10.642;2023-06-04T01:18:13;96966.91;;;21.19;21.66
64064;BME280;50314;50.618;10.642;2023-06-04T01:20:56;96975.97;;;21.18;21.63
64064;BME280;50314;50.618;10.642;2023-06-04T01:23:31;96966.59;;;21.14;21.97
64064;BME280;50314;50.618;10.642;2023-06-04T01:26:04;96966.59;;;21.14;21.75
64064;BME280;50314;50.618;10.642;2023-06-04T01:28:32;96969.44;;;21.12;21.69
64064;BME280;50314;50.618;10.642;2023-06-04T01:30:59;96959.06;;;21.09;21.81
64064;BME280;50314;50.618;10.642;2023-06-04T01:33:27;96965.25;;;21.10;21.96
64064;BME280;50314;50.618;10.642;2023-06-04T01:35:53;96965.44;;;21.08;21.93
64064;BME280;50314;50.618;10.642;2023-06-04T01:38:19;96965.78;;;21.05;21.76
64064;BME280;50314;50.618;10.642;2023-06-04T01:40:45;96968.44;;;21.05;21.66
64064;BME280;50314;50.618;10.642;2023-06-04T01:43:11;96965.09;;;21.03;21.76
64064;BME280;50314;50.618;10.642;2023-06-04T01:45:36;96973.13;;;21.03;21.82
64064;BME280;50314;50.618;10.642;2023-06-04T01:48:03;96978.69;;;21.02;21.75
64064;BME280;50314;50.618;10.642;2023-06-04T01:50:29;96974.50;;;20.99;21.85
64064;BME280;50314;50.618;10.642;2023-06-04T01:52:55;96972.84;;;20.98;21.87
64064;BME280;50314;50.618;10.642;2023-06-04T01:55:21;96974.84;;;20.96;21.76
64064;BME280;50314;50.618;10.642;2023-06-04T01:57:47;96973.84;;;20.97;21.72
64064;BME280;50314;50.618;10.642;2023-06-04T02:00:13;96971.50;;;20.94;21.74
64064;BME280;50314;50.618;10.642;2023-06-04T02:02:44;96971.19;;;20.89;22.06
64064;BME280;50314;50.618;10.642;2023-06-04T02:05:11;96964.81;;;20.90;21.78
64064;BME280;50314;50.618;10.642;2023-06-04T02:07:41;96968.69;;;20.87;21.75
64064;BME280;50314;50.618;10.642;2023-06-04T02:10:08;96971.38;;;20.87;21.90
64064;BME280;50314;50.618;10.642;2023-06-04T02:12:36;96978.72;;;20.85;21.75
64064;BME280;50314;50.618;10.642;2023-06-04T02:15:03;96973.38;;;20.85;21.97
64064;BME280;50314;50.618;10.642;2023-06-04T02:17:29;96976.22;;;20.84;21.83
64064;BME280;50314;50.618;10.642;2023-06-04T02:19:58;96974.53;;;20.83;21.89
64064;BME280;50314;50.618;10.642;2023-06-04T02:22:25;96969.53;;;20.80;21.85
64064;BME280;50314;50.618;10.642;2023-06-04T02:24:53;96973.22;;;20.79;21.88
64064;BME280;50314;50.618;10.642;2023-06-04T02:27:19;96975.25;;;20.77;21.82
64064;BME280;50314;50.618;10.642;2023-06-04T02:29:45;96975.59;;;20.74;21.75
64064;BME280;50314;50.618;10.642;2023-06-04T02:32:11;96980.28;;;20.72;21.94
64064;BME280;50314;50.618;10.642;2023-06-04T02:34:37;96977.94;;;20.69;21.85
64064;BME280;50314;50.618;10.642;2023-06-04T02:37:03;96981.44;;;20.69;22.13
64064;BME280;50314;50.618;10.642;2023-06-04T02:39:28;96983.28;;;20.69;21.66
64064;BME280;50314;50.618;10.642;2023-06-04T02:41:54;96985.28;;;20.67;21.94
64064;BME280;50314;50.618;10.642;2023-06-04T02:44:21;96983.63;;;20.65;21.98
64064;BME280;50314;50.618;10.642;2023-06-04T02:46:47;96991.84;;;20.64;21.94
64064;BME280;50314;50.618;10.642;2023-06-04T02:49:12;96983.13;;;20.62;21.91
64064;BME280;50314;50.618;10.642;2023-06-04T02:51:42;96986.09;;;20.59;21.81
64064;BME280;50314;50.618;10.642;2023-06-04T02:54:08;96988.66;;;20.60;22.23
64064;BME280;50314;50.618;10.642;2023-06-04T02:56:36;96987.28;;;20.56;22.17
64064;BME280;50314;50.618;10.642;2023-06-04T02:59:02;96987.28;;;20.56;22.19
64064;BME280;50314;50.618;10.642;2023-06-04T03:01:31;96986.44;;;20.56;22.14
64064;BME280;50314;50.618;10.642;2023-06-04T03:03:59;96987.47;;;20.55;22.21
64064;BME280;50314;50.618;10.642;2023-06-04T03:06:24;96994.66;;;20.54;22.29
64064;BME280;50314;50.618;10.642;2023-06-04T03:08:51;96986.63;;;20.54;22.12
64064;BME280;50314;50.618;10.642;2023-06-04T03:11:17;96998.34;;;20.53;22.13
64064;BME280;50314;50.618;10.642;2023-06-04T03:13:46;97002.00;;;20.52;21.94
64064;BME280;50314;50.618;10.642;2023-06-04T03:16:14;96996.84;;;20.51;21.98
64064;BME280;50314;50.618;10.642;2023-06-04T03:18:41;96999.66;;;20.49;21.81
64064;BME280;50314;50.618;10.642;2023-06-04T03:21:11;96996.34;;;20.47;22.16
64064;BME280;50314;50.618;10.642;2023-06-04T03:23:39;96998.34;;;20.45;22.11
64064;BME280;50314;50.618;10.642;2023-06-04T03:26:07;96998.50;;;20.44;22.26
64064;BME280;50314;50.618;10.642;2023-06-04T03:28:33;96996.00;;;20.42;21.98
64064;BME280;50314;50.618;10.642;2023-06-04T03:30:59;96997.00;;;20.41;22.28
64064;BME280;50314;50.618;10.642;2023-06-04T03:33:25;97003.38;;;20.40;22.31
64064;BME280;50314;50.618;10.642;2023-06-04T03:35:51;97002.69;;;20.38;22.55
64064;BME280;50314;50.618;10.642;2023-06-04T03:38:18;97000.19;;;20.36;21.90
64064;BME280;50314;50.618;10.642;2023-06-04T03:40:43;97002.34;;;20.33;22.19
64064;BME280;50314;50.618;10.642;2023-06-04T03:43:10;97007.88;;;20.31;22.42
64064;BME280;50314;50.618;10.642;2023-06-04T03:45:35;97003.53;;;20.30;22.00
64064;BME280;50314;50.618;10.642;2023-06-04T03:48:01;96999.66;;;20.33;22.04
64064;BME280;50314;50.618;10.642;2023-06-04T03:50:26;97004.38;;;20.31;22.09
64064;BME280;50314;50.618;10.642;2023-06-04T03:52:52;96996.69;;;20.28;22.26
64064;BME280;50314;50.618;10.642;2023-06-04T03:55:21;97002.03;;;20.28;22.32
64064;BME280;50314;50.618;10.642;2023-06-04T03:57:49;96993.31;;;20.26;22.40
64064;BME280;50314;50.618;10.642;2023-06-04T04:00:15;96991.66;;;20.25;22.30
64064;BME280;50314;50.618;10.642;2023-06-04T04:02:41;96992.81;;;20.22;21.99
64064;BME280;50314;50.618;10.642;2023-06-04T04:05:09;96984.81;;;20.22;22.26
64064;BME280;50314;50.618;10.642;2023-06-04T04:07:36;96996.69;;;20.20;22.06
64064;BME280;50314;50.618;10.642;2023-06-04T04:10:03;96995.69;;;20.21;22.24
64064;BME280;50314;50.618;10.642;2023-06-04T04:12:32;96996.69;;;20.20;22.42
64064;BME280;50314;50.618;10.642;2023-06-04T04:14:57;97000.19;;;20.20;22.48
64064;BME280;50314;50.618;10.642;2023-06-04T04:17:26;96993.00;;;20.21;22.38
64064;BME280;50314;50.618;10.642;2023-06-04T04:19:53;96994.84;;;20.20;22.18
64064;BME280;50314;50.618;10.642;2023-06-04T04:22:19;96992.19;;;20.20;22.43
64064;BME280;50314;50.618;10.642;2023-06-04T04:24:45;96996.00;;;20.17;22.09
64064;BME280;50314;50.618;10.642;2023-06-04T04:27:11;96997.19;;;20.15;22.32
64064;BME280;50314;50.618;10.642;2023-06-04T04:29:38;96997.03;;;20.16;22.35
64064;BME280;50314;50.618;10.642;2023-06-04T04:32:04;96999.69;;;20.16;22.14
64064;BME280;50314;50.618;10.642;2023-06-04T04:34:52;97007.38;;;20.11;22.35
64064;BME280;50314;50.618;10.642;2023-06-04T04:37:18;97007.72;;;20.16;22.39
64064;BME280;50314;50.618;10.642;2023-06-04T04:39:47;97002.53;;;20.15;22.20
64064;BME280;50314;50.618;10.642;2023-06-04T04:42:14;96999.84;;;20.15;22.43
64064;BME280;50314;50.618;10.642;2023-06-04T04:44:41;97003.69;;;20.12;22.33
64064;BME280;50314;50.618;10.642;2023-06-04T04:47:07;97003.03;;;20.10;22.58
64064;BME280;50314;50.618;10.642;2023-06-04T04:49:32;97001.00;;;20.12;22.50
64064;BME280;50314;50.618;10.642;2023-06-04T04:51:58;97005.19;;;20.15;22.30
64064;BME280;50314;50.618;10.642;2023-06-04T04:54:24;96999.69;;;20.16;22.32
64064;BME280;50314;50.618;10.642;2023-06-04T04:56:49;97004.38;;;20.14;22.32
64064;BME280;50314;50.618;10.642;2023-06-04T04:59:16;97001.88;;;20.13;22.07
64064;BME280;50314;50.618;10.642;2023-06-04T05:01:43;97006.03;;;20.15;22.33
64064;BME280;50314;50.618;10.642;2023-06-04T05:04:08;97007.72;;;20.16;22.03
64064;BME280;50314;50.618;10.642;2023-06-04T05:06:34;97010.22;;;20.18;22.21
64064;BME280;50314;50.618;10.642;2023-06-04T05:09:01;97014.38;;;20.12;22.65
64064;BME280;50314;50.618;10.642;2023-06-04T05:11:26;97012.56;;;20.21;22.33
64064;BME280;50314;50.618;10.642;2023-06-04T05:13:52;97012.03;;;20.26;22.14
64064;BME280;50314;50.618;10.642;2023-06-04T05:16:20;97017.06;;;20.29;22.27
64064;BME280;50314;50.618;10.642;2023-06-04T05:18:48;97008.69;;;20.32;22.31
64064;BME280;50314;50.618;10.642;2023-06-04T05:21:17;97012.06;;;20.34;22.12
64064;BME280;50314;50.618;10.642;2023-06-04T05:23:47;97011.72;;;20.37;22.07
64064;BME280;50314;50.618;10.642;2023-06-04T05:26:13;97010.53;;;20.39;22.11
64064;BME280;50314;50.618;10.642;2023-06-04T05:28:39;97009.38;;;20.42;21.96
64064;BME280;50314;50.618;10.642;2023-06-04T05:31:09;97019.72;;;20.45;22.09
64064;BME280;50314;50.618;10.642;2023-06-04T05:33:35;97014.06;;;20.48;22.11
64064;BME280;50314;50.618;10.642;2023-06-04T05:36:01;97011.88;;;20.52;22.12
64064;BME280;50314;50.618;10.642;2023-06-04T05:38:30;97020.25;;;20.57;22.07
64064;BME280;50314;50.618;10.642;2023-06-04T05:40:58;97016.06;;;20.62;22.13
64064;BME280;50314;50.618;10.642;2023-06-04T05:43:24;97021.09;;;20.65;22.10
64064;BME280;50314;50.618;10.642;2023-06-04T05:45:49;97016.06;;;20.71;22.33
64064;BME280;50314;50.618;10.642;2023-06-04T05:48:16;97024.59;;;20.74;22.22
64064;BME280;50314;50.618;10.642;2023-06-04T05:50:42;97021.41;;;20.79;22.19
64064;BME280;50314;50.618;10.642;2023-06-04T05:53:07;97019.06;;;20.84;22.29
64064;BME280;50314;50.618;10.642;2023-06-04T05:55:33;97023.88;;;20.88;22.16
64064;BME280;50314;50.618;10.642;2023-06-04T05:57:58;97019.72;;;20.94;22.30
64064;BME280;50314;50.618;10.642;2023-06-04T06:00:24;97020.00;;;20.99;22.55
64064;BME280;50314;50.618;10.642;2023-06-04T06:02:50;97032.53;;;21.07;22.40
64064;BME280;50314;50.618;10.642;2023-06-04T06:05:19;97027.50;;;21.12;22.46
64064;BME280;50314;50.618;10.642;2023-06-04T06:07:45;97027.69;;;21.19;22.47
64064;BME280;50314;50.618;10.642;2023-06-04T06:10:11;97034.22;;;21.24;22.44
64064;BME280;50314;50.618;10.642;2023-06-04T06:12:37;97037.66;;;21.33;22.30
64064;BME280;50314;50.618;10.642;2023-06-04T06:15:03;97045.03;;;21.39;22.52
64064;BME280;50314;50.618;10.642;2023-06-04T06:17:28;97034.44;;;21.46;22.46
64064;BME280;50314;50.618;10.642;2023-06-04T06:19:54;97045.31;;;21.52;22.29
64064;BME280;50314;50.618;10.642;2023-06-04T06:22:20;97044.59;;;21.58;22.42
64064;BME280;50314;50.618;10.642;2023-06-04T06:24:46;97045.56;;;21.66;22.32
64064;BME280;50314;50.618;10.642;2023-06-04T06:27:13;97047.56;;;21.72;22.47
64064;BME280;50314;50.618;10.642;2023-06-04T06:29:40;97051.22;;;21.79;22.24
64064;BME280;50314;50.618;10.642;2023-06-04T06:32:07;97054.06;;;21.86;22.38
64064;BME280;50314;50.618;10.642;2023-06-04T06:34:32;97051.31;;;21.94;22.17
64064;BME280;50314;50.618;10.642;2023-06-04T06:36:58;97052.25;;;22.01;22.41
64064;BME280;50314;50.618;10.642;2023-06-04T06:39:23;97056.75;;;22.09;22.21
64064;BME280;50314;50.618;10.642;2023-06-04T06:41:49;97055.03;;;22.16;22.33
64064;BME280;50314;50.618;10.642;2023-06-04T06:44:14;97063.00;;;22.24;22.33
64064;BME280;50314;50.618;10.642;2023-06-04T06:46:40;97064.78;;;22.32;22.11
64064;BME280;50314;50.618;10.642;2023-06-04T06:49:05;97064.78;;;22.40;21.08
64064;BME280;50314;50.618;10.642;2023-06-04T06:51:31;97066.56;;;22.47;20.35
64064;BME280;50314;50.618;10.642;2023-06-04T06:53:56;97067.69;;;22.53;19.29
64064;BME280;50314;50.618;10.642;2023-06-04T06:56:22;97068.44;;;22.62;18.75
64064;BME280;50314;50.618;10.642;2023-06-04T06:58:47;97071.44;;;22.67;18.02
64064;BME280;50314;50.618;10.642;2023-06-04T07:01:13;97072.38;;;22.74;17.55
64064;BME280;50314;50.618;10.642;2023-06-04T07:03:39;97077.84;;;22.81;17.67
64064;BME280;50314;50.618;10.642;2023-06-04T07:06:07;97076.28;;;22.86;17.00
64064;BME280;50314;50.618;10.642;2023-06-04T07:08:33;97070.84;;;22.94;16.67
64064;BME280;50314;50.618;10.642;2023-06-04T07:11:01;97073.84;;;23.00;15.98
64064;BME280;50314;50.618;10.642;2023-06-04T07:13:27;97084.50;;;23.08;16.10
64064;BME280;50314;50.618;10.642;2023-06-04T07:15:53;97080.88;;;23.15;16.15
64064;BME280;50314;50.618;10.642;2023-06-04T07:18:19;97072.91;;;23.22;16.16
64064;BME280;50314;50.618;10.642;2023-06-04T07:20:44;97070.97;;;23.31;16.04
64064;BME280;50314;50.618;10.642;2023-06-04T07:23:10;97068.41;;;23.37;15.36
64064;BME280;50314;50.618;10.642;2023-06-04T07:25:35;97075.56;;;23.45;15.25
64064;BME280;50314;50.618;10.642;2023-06-04T07:28:01;97075.44;;;23.53;15.28
64064;BME280;50314;50.618;10.642;2023-06-04T07:30:29;97078.03;;;23.61;15.25
64064;BME280;50314;50.618;10.642;2023-06-04T07:32:57;97082.47;;;23.69;15.06
64064;BME280;50314;50.618;10.642;2023-06-04T07:35:23;97081.53;;;23.77;15.18
64064;BME280;50314;50.618;10.642;2023-06-04T07:37:49;97073.16;;;23.86;15.04
64064;BME280;50314;50.618;10.642;2023-06-04T07:40:15;97081.13;;;23.95;14.54
64064;BME280;50314;50.618;10.642;2023-06-04T07:42:42;97072.16;;;24.02;14.61
64064;BME280;50314;50.618;10.642;2023-06-04T07:45:08;97070.19;;;24.11;14.34
64064;BME280;50314;50.618;10.642;2023-06-04T07:47:37;97074.59;;;24.19;14.22
64064;BME280;50314;50.618;10.642;2023-06-04T07:50:04;97081.31;;;24.29;14.27
64064;BME280;50314;50.618;10.642;2023-06-04T07:52:30;97081.19;;;24.37;14.20
64064;BME280;50314;50.618;10.642;2023-06-04T07:54:56;97076.53;;;24.46;14.18
64064;BME280;50314;50.618;10.642;2023-06-04T07:57:22;97083.47;;;24.55;14.00
64064;BME280;50314;50.618;10.642;2023-06-04T07:59:48;97076.91;;;24.65;14.20
64064;BME280;50314;50.618;10.642;2023-06-04T08:02:14;97073.88;;;24.74;14.07
64064;BME280;50314;50.618;10.642;2023-06-04T08:04:40;97077.28;;;24.83;13.94
64064;BME280;50314;50.618;10.642;2023-06-04T08:07:06;97075.03;;;24.87;13.73
64064;BME280;50314;50.618;10.642;2023-06-04T08:09:31;97074.97;;;24.80;13.12
64064;BME280;50314;50.618;10.642;2023-06-04T08:11:57;97075.13;;;24.72;13.36
64064;BME280;50314;50.618;10.642;2023-06-04T08:14:23;97080.47;;;24.65;12.84
64064;BME280;50314;50.618;10.642;2023-06-04T08:16:52;97086.78;;;24.57;13.19
64064;BME280;50314;50.618;10.642;2023-06-04T08:19:18;97082.84;;;24.53;12.98
64064;BME280;50314;50.618;10.642;2023-06-04T08:21:43;97092.31;;;24.49;13.49
64064;BME280;50314;50.618;10.642;2023-06-04T08:24:10;97090.81;;;24.47;13.34
64064;BME280;50314;50.618;10.642;2023-06-04T08:26:36;97084.16;;;24.43;13.04
64064;BME280;50314;50.618;10.642;2023-06-04T08:29:02;97091.78;;;24.39;13.09
64064;BME280;50314;50.618;10.642;2023-06-04T08:31:29;97084.09;;;24.36;13.08
64064;BME280;50314;50.618;10.642;2023-06-04T08:33:55;97091.72;;;24.32;13.61
64064;BME280;50314;50.618;10.642;2023-06-04T08:36:21;97095.63;;;24.30;13.34
64064;BME280;50314;50.618;10.642;2023-06-04T08:38:46;97103.88;;;24.28;13.16
64064;BME280;50314;50.618;10.642;2023-06-04T08:41:24;97109.66;;;24.25;12.95
64064;BME280;50314;50.618;10.642;2023-06-04T08:43:55;97101.97;;;24.22;12.81
64064;BME280;50314;50.618;10.642;2023-06-04T08:46:22;97091.38;;;24.21;12.96
64064;BME280;50314;50.618;10.642;2023-06-04T08:48:49;97092.78;;;24.17;13.26
64064;BME280;50314;50.618;10.642;2023-06-04T08:51:15;97099.19;;;24.15;13.13
64064;BME280;50314;50.618;10.642;2023-06-04T08:56:28;97101.22;;;24.13;13.38
64064;BME280;50314;50.618;10.642;2023-06-04T08:59:01;97091.72;;;24.11;12.82
64064;BME280;50314;50.618;10.642;2023-06-04T09:01:27;97095.03;;;24.13;13.34
64064;BME280;50314;50.618;10.642;2023-06-04T09:03:52;97099.78;;;24.11;13.27
64064;BME280;50314;50.618;10.642;2023-06-04T09:06:18;97097.09;;;24.11;13.21
64064;BME280;50314;50.618;10.642;2023-06-04T09:08:44;97093.38;;;24.12;13.56
64064;BME280;50314;50.618;10.642;2023-06-04T09:11:13;97097.91;;;24.11;13.60
64064;BME280;50314;50.618;10.642;2023-06-04T09:13:43;97099.38;;;24.14;13.49
64064;BME280;50314;50.618;10.642;2023-06-04T09:16:09;97099.19;;;24.15;13.67
64064;BME280;50314;50.618;10.642;2023-06-04T09:18:35;97110.78;;;24.16;13.08
64064;BME280;50314;50.618;10.642;2023-06-04T09:21:05;97105.41;;;24.16;12.99
64064;BME280;50314;50.618;10.642;2023-06-04T09:23:34;97099.66;;;24.19;13.33
64064;BME280;50314;50.618;10.642;2023-06-04T09:26:07;97089.25;;;24.16;12.33
64064;BME280;50314;50.618;10.642;2023-06-04T09:28:33;97092.16;;;24.14;13.24
64064;BME280;50314;50.618;10.642;2023-06-04T09:30:58;97093.06;;;24.22;13.35
64064;BME280;50314;50.618;10.642;2023-06-04T09:33:24;97098.88;;;24.25;13.87
64064;BME280;50314;50.618;10.642;2023-06-04T09:35:58;97093.31;;;24.27;13.59
64064;BME280;50314;50.618;10.642;2023-06-04T09:38:35;97091.44;;;24.27;13.46
64064;BME280;50314;50.618;10.642;2023-06-04T09:41:01;97096.06;;;24.33;13.13
64064;BME280;50314;50.618;10.642;2023-06-04T09:43:30;97093.38;;;24.33;13.42
64064;BME280;50314;50.618;10.642;2023-06-04T09:46:11;97091.06;;;24.30;13.12
64064;BME280;50314;50.618;10.642;2023-06-04T09:48:38;97085.94;;;24.35;13.31
64064;BME280;50314;50.618;10.642;2023-06-04T09:53:33;97087.88;;;24.42;13.41
64064;BME280;50314;50.618;10.642;2023-06-04T09:56:01;97093.72;;;24.45;13.40
64064;BME280;50314;50.618;10.642;2023-06-04T09:58:29;97094.19;;;24.49;13.42
64064;BME280;50314;50.618;10.642;2023-06-04T10:00:59;97094.34;;;24.47;13.63
64064;BME280;50314;50.618;10.642;2023-06-04T10:03:33;97101.88;;;24.52;13.32
64064;BME280;50314;50.618;10.642;2023-06-04T10:06:01;97102.13;;;24.57;13.24
64064;BME280;50314;50.618;10.642;2023-06-04T10:08:29;97091.78;;;24.60;13.08
64064;BME280;50314;50.618;10.642;2023-06-04T10:10:58;97086.22;;;24.62;13.40
64064;BME280;50314;50.618;10.642;2023-06-04T10:13:30;97100.53;;;24.63;13.61
64064;BME280;50314;50.618;10.642;2023-06-04T10:15:57;97093.72;;;24.67;13.01
64064;BME280;50314;50.618;10.642;2023-06-04T10:18:24;97098.06;;;24.68;13.01
64064;BME280;50314;50.618;10.642;2023-06-04T10:20:53;97098.91;;;24.68;12.36
64064;BME280;50314;50.618;10.642;2023-06-04T10:23:20;97095.19;;;24.69;12.59
64064;BME280;50314;50.618;10.642;2023-06-04T10:25:48;97087.69;;;24.65;12.72
64064;BME280;50314;50.618;10.642;2023-06-04T10:28:15;97084.03;;;24.72;12.98
64064;BME280;50314;50.618;10.642;2023-06-04T10:30:41;97081.97;;;24.74;12.77
64064;BME280;50314;50.618;10.642;2023-06-04T10:33:06;97080.75;;;24.77;12.25
64064;BME280;50314;50.618;10.642;2023-06-04T10:35:33;97078.88;;;24.77;12.08
64064;BME280;50314;50.618;10.642;2023-06-04T10:38:12;97086.53;;;24.74;12.12
64064;BME280;50314;50.618;10.642;2023-06-04T10:40:39;97082.22;;;24.79;12.48
64064;BME280;50314;50.618;10.642;2023-06-04T10:43:10;97078.50;;;24.80;12.08
64064;BME280;50314;50.618;10.642;2023-06-04T10:45:36;97076.25;;;24.84;12.60
64064;BME280;50314;50.618;10.642;2023-06-04T10:48:06;97078.94;;;24.84;12.11
64064;BME280;50314;50.618;10.642;2023-06-04T10:50:33;97076.25;;;24.84;12.39
64064;BME280;50314;50.618;10.642;2023-06-04T10:52:59;97071.69;;;24.84;12.93
64064;BME280;50314;50.618;10.642;2023-06-04T10:55:29;97083.75;;;24.89;13.00
64064;BME280;50314;50.618;10.642;2023-06-04T10:57:58;97066.31;;;24.84;13.14
64064;BME280;50314;50.618;10.642;2023-06-04T11:00:41;97067.13;;;24.85;13.18
64064;BME280;50314;50.618;10.642;2023-06-04T11:03:08;97071.56;;;24.93;13.27
64064;BME280;50314;50.618;10.642;2023-06-04T11:05:40;97067.63;;;24.95;12.92
64064;BME280;50314;50.618;10.642;2023-06-04T11:08:08;97066.88;;;25.01;12.60
64064;BME280;50314;50.618;10.642;2023-06-04T11:10:38;97054.44;;;25.00;12.89
64064;BME280;50314;50.618;10.642;2023-06-04T11:13:04;97058.78;;;25.01;12.97
64064;BME280;50314;50.618;10.642;2023-06-04T11:15:46;97065.41;;;24.99;12.96
64064;BME280;50314;50.618;10.642;2023-06-04T11:18:15;97063.59;;;25.06;13.01
64064;BME280;50314;50.618;10.642;2023-06-04T11:20:41;97068.59;;;25.09;13.53
64064;BME280;50314;50.618;10.642;2023-06-04T11:23:07;97061.75;;;25.06;13.17
64064;BME280;50314;50.618;10.642;2023-06-04T11:25:33;97066.97;;;25.15;12.92
64064;BME280;50314;50.618;10.642;2023-06-04T11:28:00;97066.56;;;25.18;12.46
64064;BME280;50314;50.618;10.642;2023-06-04T11:30:27;97071.97;;;25.18;11.81
64064;BME280;50314;50.618;10.642;2023-06-04T11:33:03;97066.53;;;25.11;11.87
64064;BME280;50314;50.618;10.642;2023-06-04T11:35:29;97061.19;;;25.18;11.60
64064;BME280;50314;50.618;10.642;2023-06-04T11:37:56;97062.66;;;25.20;11.42
64064;BME280;50314;50.618;10.642;2023-06-04T11:40:22;97060.78;;;25.21;11.53
64064;BME280;50314;50.618;10.642;2023-06-04T11:42:48;97059.75;;;25.22;11.83
64064;BME280;50314;50.618;10.642;2023-06-04T11:45:16;97055.84;;;25.24;11.94
64064;BME280;50314;50.618;10.642;2023-06-04T11:48:00;97059.97;;;25.20;11.81
64064;BME280;50314;50.618;10.642;2023-06-04T11:50:28;97056.66;;;25.25;11.78
64064;BME280;50314;50.618;10.642;2023-06-04T11:52:54;97060.00;;;25.27;12.38
64064;BME280;50314;50.618;10.642;2023-06-04T11:55:20;97052.34;;;25.30;12.30
64064;BME280;50314;50.618;10.642;2023-06-04T11:57:47;97060.88;;;25.34;12.50
64064;BME280;50314;50.618;10.642;2023-06-04T12:00:14;97055.91;;;25.38;11.81
64064;BME280;50314;50.618;10.642;2023-06-04T12:02:54;97054.44;;;25.35;10.89
64064;BME280;50314;50.618;10.642;2023-06-04T12:05:21;97056.72;;;25.38;11.38
64064;BME280;50314;50.618;10.642;2023-06-04T12:07:49;97050.13;;;25.41;11.18
64064;BME280;50314;50.618;10.642;2023-06-04T12:10:18;97052.81;;;25.41;11.24
64064;BME280;50314;50.618;10.642;2023-06-04T12:12:44;97048.06;;;25.43;11.84
64064;BME280;50314;50.618;10.642;2023-06-04T12:15:10;97043.28;;;25.45;11.90
64064;BME280;50314;50.618;10.642;2023-06-04T12:17:36;97048.50;;;25.46;12.11
64064;BME280;50314;50.618;10.642;2023-06-04T12:20:05;97056.38;;;25.48;12.04
64064;BME280;50314;50.618;10.642;2023-06-04T12:22:31;97062.22;;;25.51;11.67
64064;BME280;50314;50.618;10.642;2023-06-04T12:24:57;97057.66;;;25.52;11.88
64064;BME280;50314;50.618;10.642;2023-06-04T12:27:26;97049.38;;;25.53;11.76
64064;BME280;50314;50.618;10.642;2023-06-04T12:29:56;97037.78;;;25.53;12.39
64064;BME280;50314;50.618;10.642;2023-06-04T12:32:22;97046.47;;;25.55;12.25
64064;BME280;50314;50.618;10.642;2023-06-04T12:34:47;97044.44;;;25.57;12.19
64064;BME280;50314;50.618;10.642;2023-06-04T12:37:13;97044.22;;;25.59;12.88
64064;BME280;50314;50.618;10.642;2023-06-04T12:39:39;97042.34;;;25.59;12.33
64064;BME280;50314;50.618;10.642;2023-06-04T12:42:06;97041.31;;;25.60;12.18
64064;BME280;50314;50.618;10.642;2023-06-04T12:44:32;97050.03;;;25.62;12.09
64064;BME280;50314;50.618;10.642;2023-06-04T12:46:58;97046.31;;;25.63;11.90
64064;BME280;50314;50.618;10.642;2023-06-04T12:49:24;97046.31;;;25.63;12.03
64064;BME280;50314;50.618;10.642;2023-06-04T12:51:49;97040.06;;;25.63;12.08
64064;BME280;50314;50.618;10.642;2023-06-04T12:54:15;97044.63;;;25.62;12.16
64064;BME280;50314;50.618;10.642;2023-06-04T12:56:40;97029.09;;;25.64;12.43